sensor_id;sensor_type;location;lat;lon;timestamp;P1;durP1;ratioP1;P2;durP2;ratioP2
2934;SDS011;2462;51.456;7.248;2023-04-22T00:00:47;4.73;;;4.33;;
2934;SDS011;2462;51.456;7.248;2023-04-22T00:03:12;5.77;;;5.00;;
2934;SDS011;2462;51.456;7.248;2023-04-22T00:05:38;5.47;;;5.00;;
2934;SDS011;2462;51.456;7.248;2023-04-22T00:08:05;4.83;;;4.37;;
2934;SDS011;2462;51.456;7.248;2023-04-22T00:10:31;5.00;;;4.50;;
2934;SDS011;2462;51.456;7.248;2023-04-22T00:12:57;5.93;;;5.33;;
2934;SDS011;2462;51.456;7.248;2023-04-22T00:15:22;4.47;;;4.07;;
2934;SDS011;2462;51.456;7.248;2023-04-22T00:17:49;4.97;;;4.47;;
2934;SDS011;2462;51.456;7.248;2023-04-22T00:20:16;4.67;;;4.27;;
2934;SDS011;2462;51.456;7.248;2023-04-22T00:22:43;5.40;;;4.90;;
2934;SDS011;2462;51.456;7.248;2023-04-22T00:25:08;6.03;;;5.47;;
2934;SDS011;2462;51.456;7.248;2023-04-22T00:27:34;4.73;;;4.33;;
2934;SDS011;2462;51.456;7.248;2023-04-22T00:29:59;5.03;;;4.23;;
2934;SDS011;2462;51.456;7.248;2023-04-22T00:32:25;4.73;;;4.20;;
2934;SDS011;2462;51.456;7.248;2023-04-22T00:34:50;4.77;;;4.30;;
2934;SDS011;2462;51.456;7.248;2023-04-22T00:37:16;4.80;;;4.40;;
2934;SDS011;2462;51.456;7.248;2023-04-22T00:39:42;4.53;;;4.13;;
2934;SDS011;2462;51.456;7.248;2023-04-22T00:42:07;5.00;;;4.50;;
2934;SDS011;2462;51.456;7.248;2023-04-22T00:44:34;4.70;;;4.30;;
2934;SDS011;2462;51.456;7.248;2023-04-22T00:47:00;4.87;;;4.20;;
2934;SDS011;2462;51.456;7.248;2023-04-22T00:49:26;5.70;;;5.17;;
2934;SDS011;2462;51.456;7.248;2023-04-22T00:51:52;4.80;;;4.40;;
2934;SDS011;2462;51.456;7.248;2023-04-22T00:54:18;4.10;;;3.70;;
2934;SDS011;2462;51.456;7.248;2023-04-22T00:56:43;5.80;;;4.60;;
2934;SDS011;2462;51.456;7.248;2023-04-22T00:59:10;6.47;;;4.37;;
2934;SDS011;2462;51.456;7.248;2023-04-22T01:01:35;4.80;;;4.30;;
2934;SDS011;2462;51.456;7.248;2023-04-22T01:04:02;5.03;;;4.63;;
2934;SDS011;2462;51.456;7.248;2023-04-22T01:06:28;6.70;;;4.50;;
2934;SDS011;2462;51.456;7.248;2023-04-22T01:08:56;4.20;;;3.80;;
2934;SDS011;2462;51.456;7.248;2023-04-22T01:11:22;5.30;;;4.80;;
2934;SDS011;2462;51.456;7.248;2023-04-22T01:13:48;5.00;;;4.57;;
2934;SDS011;2462;51.456;7.248;2023-04-22T01:16:14;4.13;;;3.83;;
2934;SDS011;2462;51.456;7.248;2023-04-22T01:18:40;5.87;;;4.70;;
2934;SDS011;2462;51.456;7.248;2023-04-22T01:21:06;4.97;;;4.50;;
2934;SDS011;2462;51.456;7.248;2023-04-22T01:23:32;5.00;;;4.50;;
2934;SDS011;2462;51.456;7.248;2023-04-22T01:25:58;4.90;;;4.37;;
2934;SDS011;2462;51.456;7.248;2023-04-22T01:28:24;4.40;;;4.00;;
2934;SDS011;2462;51.456;7.248;2023-04-22T01:30:50;3.07;;;2.80;;
2934;SDS011;2462;51.456;7.248;2023-04-22T01:33:17;4.70;;;4.30;;
2934;SDS011;2462;51.456;7.248;2023-04-22T01:35:44;5.80;;;4.03;;
2934;SDS011;2462;51.456;7.248;2023-04-22T01:38:10;4.00;;;3.60;;
2934;SDS011;2462;51.456;7.248;2023-04-22T01:40:37;4.20;;;3.80;;
2934;SDS011;2462;51.456;7.248;2023-04-22T01:43:03;4.83;;;4.33;;
2934;SDS011;2462;51.456;7.248;2023-04-22T01:45:28;4.73;;;4.33;;
2934;SDS011;2462;51.456;7.248;2023-04-22T01:47:54;7.20;;;4.13;;
2934;SDS011;2462;51.456;7.248;2023-04-22T01:50:20;4.00;;;3.60;;
2934;SDS011;2462;51.456;7.248;2023-04-22T01:52:46;4.23;;;3.83;;
2934;SDS011;2462;51.456;7.248;2023-04-22T01:55:12;4.63;;;4.10;;
2934;SDS011;2462;51.456;7.248;2023-04-22T01:57:38;5.30;;;3.80;;
2934;SDS011;2462;51.456;7.248;2023-04-22T02:00:04;3.70;;;3.33;;
2934;SDS011;2462;51.456;7.248;2023-04-22T02:02:31;4.67;;;4.20;;
2934;SDS011;2462;51.456;7.248;2023-04-22T02:04:57;5.57;;;4.03;;
2934;SDS011;2462;51.456;7.248;2023-04-22T02:07:23;3.80;;;3.47;;
2934;SDS011;2462;51.456;7.248;2023-04-22T02:09:48;4.27;;;3.87;;
2934;SDS011;2462;51.456;7.248;2023-04-22T02:12:14;4.13;;;3.73;;
2934;SDS011;2462;51.456;7.248;2023-04-22T02:14:39;3.63;;;3.30;;
2934;SDS011;2462;51.456;7.248;2023-04-22T02:17:05;4.30;;;3.90;;
2934;SDS011;2462;51.456;7.248;2023-04-22T02:19:31;4.47;;;3.67;;
2934;SDS011;2462;51.456;7.248;2023-04-22T02:21:56;4.07;;;3.57;;
2934;SDS011;2462;51.456;7.248;2023-04-22T02:24:22;4.30;;;3.90;;
2934;SDS011;2462;51.456;7.248;2023-04-22T02:26:47;4.10;;;3.70;;
2934;SDS011;2462;51.456;7.248;2023-04-22T02:29:13;3.90;;;3.60;;
2934;SDS011;2462;51.456;7.248;2023-04-22T02:31:40;4.47;;;4.07;;
2934;SDS011;2462;51.456;7.248;2023-04-22T02:34:05;4.43;;;3.53;;
2934;SDS011;2462;51.456;7.248;2023-04-22T02:36:31;4.10;;;3.80;;
2934;SDS011;2462;51.456;7.248;2023-04-22T02:38:58;4.57;;;4.17;;
2934;SDS011;2462;51.456;7.248;2023-04-22T02:41:28;4.10;;;3.67;;
2934;SDS011;2462;51.456;7.248;2023-04-22T02:43:54;5.70;;;3.60;;
2934;SDS011;2462;51.456;7.248;2023-04-22T02:46:19;4.73;;;4.27;;
2934;SDS011;2462;51.456;7.248;2023-04-22T02:48:45;4.17;;;3.80;;
2934;SDS011;2462;51.456;7.248;2023-04-22T02:51:10;4.17;;;3.83;;
2934;SDS011;2462;51.456;7.248;2023-04-22T02:53:36;4.00;;;3.27;;
2934;SDS011;2462;51.456;7.248;2023-04-22T02:56:02;3.67;;;3.37;;
2934;SDS011;2462;51.456;7.248;2023-04-22T02:58:27;3.93;;;3.47;;
2934;SDS011;2462;51.456;7.248;2023-04-22T03:00:53;3.40;;;3.10;;
2934;SDS011;2462;51.456;7.248;2023-04-22T03:03:20;3.50;;;3.20;;
2934;SDS011;2462;51.456;7.248;2023-04-22T03:05:46;4.07;;;3.33;;
2934;SDS011;2462;51.456;7.248;2023-04-22T03:08:11;4.03;;;3.53;;
2934;SDS011;2462;51.456;7.248;2023-04-22T03:10:37;3.30;;;3.00;;
2934;SDS011;2462;51.456;7.248;2023-04-22T03:13:03;3.43;;;3.13;;
2934;SDS011;2462;51.456;7.248;2023-04-22T03:15:28;3.80;;;3.20;;
2934;SDS011;2462;51.456;7.248;2023-04-22T03:17:54;3.77;;;3.47;;
2934;SDS011;2462;51.456;7.248;2023-04-22T03:20:20;3.60;;;3.30;;
2934;SDS011;2462;51.456;7.248;2023-04-22T03:22:46;3.40;;;3.07;;
2934;SDS011;2462;51.456;7.248;2023-04-22T03:25:11;3.90;;;3.60;;
2934;SDS011;2462;51.456;7.248;2023-04-22T03:27:37;3.80;;;3.40;;
2934;SDS011;2462;51.456;7.248;2023-04-22T03:30:03;3.90;;;3.50;;
2934;SDS011;2462;51.456;7.248;2023-04-22T03:32:29;3.50;;;3.13;;
2934;SDS011;2462;51.456;7.248;2023-04-22T03:34:55;5.37;;;3.40;;
2934;SDS011;2462;51.456;7.248;2023-04-22T03:37:20;3.87;;;3.57;;
2934;SDS011;2462;51.456;7.248;2023-04-22T03:39:46;3.87;;;2.87;;
2934;SDS011;2462;51.456;7.248;2023-04-22T03:42:12;4.30;;;3.90;;
2934;SDS011;2462;51.456;7.248;2023-04-22T03:44:38;3.57;;;3.27;;
2934;SDS011;2462;51.456;7.248;2023-04-22T03:47:03;4.03;;;3.50;;
2934;SDS011;2462;51.456;7.248;2023-04-22T03:49:29;4.00;;;3.60;;
2934;SDS011;2462;51.456;7.248;2023-04-22T03:51:55;3.37;;;3.07;;
2934;SDS011;2462;51.456;7.248;2023-04-22T03:54:21;3.13;;;2.93;;
2934;SDS011;2462;51.456;7.248;2023-04-22T03:56:46;4.27;;;3.90;;
2934;SDS011;2462;51.456;7.248;2023-04-22T03:59:12;3.93;;;3.50;;
2934;SDS011;2462;51.456;7.248;2023-04-22T04:01:37;3.77;;;3.23;;
2934;SDS011;2462;51.456;7.248;2023-04-22T04:04:03;3.50;;;3.20;;
2934;SDS011;2462;51.456;7.248;2023-04-22T04:06:29;3.60;;;2.90;;
2934;SDS011;2462;51.456;7.248;2023-04-22T04:08:55;3.53;;;3.23;;
2934;SDS011;2462;51.456;7.248;2023-04-22T04:11:21;3.30;;;3.00;;
2934;SDS011;2462;51.456;7.248;2023-04-22T04:13:46;3.20;;;2.90;;
2934;SDS011;2462;51.456;7.248;2023-04-22T04:16:12;3.70;;;3.40;;
2934;SDS011;2462;51.456;7.248;2023-04-22T04:18:38;3.50;;;3.20;;
2934;SDS011;2462;51.456;7.248;2023-04-22T04:21:03;3.87;;;3.57;;
2934;SDS011;2462;51.456;7.248;2023-04-22T04:23:29;3.70;;;3.40;;
2934;SDS011;2462;51.456;7.248;2023-04-22T04:25:55;3.53;;;3.13;;
2934;SDS011;2462;51.456;7.248;2023-04-22T04:28:21;4.00;;;3.60;;
2934;SDS011;2462;51.456;7.248;2023-04-22T04:30:47;4.00;;;3.60;;
2934;SDS011;2462;51.456;7.248;2023-04-22T04:33:12;3.20;;;2.87;;
2934;SDS011;2462;51.456;7.248;2023-04-22T04:35:40;3.30;;;3.10;;
2934;SDS011;2462;51.456;7.248;2023-04-22T04:38:07;3.13;;;2.83;;
2934;SDS011;2462;51.456;7.248;2023-04-22T04:40:33;3.37;;;3.07;;
2934;SDS011;2462;51.456;7.248;2023-04-22T04:42:58;2.47;;;2.27;;
2934;SDS011;2462;51.456;7.248;2023-04-22T04:45:27;3.37;;;3.07;;
2934;SDS011;2462;51.456;7.248;2023-04-22T04:47:53;3.43;;;3.13;;
2934;SDS011;2462;51.456;7.248;2023-04-22T04:50:19;3.10;;;2.90;;
2934;SDS011;2462;51.456;7.248;2023-04-22T04:52:46;3.20;;;2.90;;
2934;SDS011;2462;51.456;7.248;2023-04-22T04:55:13;3.30;;;3.00;;
2934;SDS011;2462;51.456;7.248;2023-04-22T04:57:39;3.57;;;3.07;;
2934;SDS011;2462;51.456;7.248;2023-04-22T05:00:05;4.10;;;3.70;;
2934;SDS011;2462;51.456;7.248;2023-04-22T05:02:32;3.27;;;2.97;;
2934;SDS011;2462;51.456;7.248;2023-04-22T05:04:57;3.13;;;2.90;;
2934;SDS011;2462;51.456;7.248;2023-04-22T05:07:23;2.80;;;2.60;;
2934;SDS011;2462;51.456;7.248;2023-04-22T05:09:49;3.43;;;3.13;;
2934;SDS011;2462;51.456;7.248;2023-04-22T05:12:14;3.10;;;2.80;;
2934;SDS011;2462;51.456;7.248;2023-04-22T05:14:40;2.90;;;2.70;;
2934;SDS011;2462;51.456;7.248;2023-04-22T05:17:06;3.20;;;2.90;;
2934;SDS011;2462;51.456;7.248;2023-04-22T05:19:32;3.43;;;3.13;;
2934;SDS011;2462;51.456;7.248;2023-04-22T05:21:58;3.70;;;3.03;;
2934;SDS011;2462;51.456;7.248;2023-04-22T05:24:23;3.47;;;3.17;;
2934;SDS011;2462;51.456;7.248;2023-04-22T05:26:49;3.13;;;2.83;;
2934;SDS011;2462;51.456;7.248;2023-04-22T05:29:16;3.17;;;2.87;;
2934;SDS011;2462;51.456;7.248;2023-04-22T05:31:41;3.00;;;2.70;;
2934;SDS011;2462;51.456;7.248;2023-04-22T05:34:07;3.27;;;3.00;;
2934;SDS011;2462;51.456;7.248;2023-04-22T05:36:32;2.73;;;2.50;;
2934;SDS011;2462;51.456;7.248;2023-04-22T05:38:58;2.70;;;2.50;;
2934;SDS011;2462;51.456;7.248;2023-04-22T05:41:23;3.17;;;2.87;;
2934;SDS011;2462;51.456;7.248;2023-04-22T05:43:50;2.87;;;2.67;;
2934;SDS011;2462;51.456;7.248;2023-04-22T05:46:15;2.67;;;2.47;;
2934;SDS011;2462;51.456;7.248;2023-04-22T05:48:41;3.20;;;2.90;;
2934;SDS011;2462;51.456;7.248;2023-04-22T05:51:07;3.50;;;3.20;;
2934;SDS011;2462;51.456;7.248;2023-04-22T05:53:32;3.03;;;2.53;;
2934;SDS011;2462;51.456;7.248;2023-04-22T05:55:58;3.30;;;3.00;;
2934;SDS011;2462;51.456;7.248;2023-04-22T05:58:23;3.40;;;2.80;;
2934;SDS011;2462;51.456;7.248;2023-04-22T06:00:49;2.67;;;2.47;;
2934;SDS011;2462;51.456;7.248;2023-04-22T06:03:14;3.63;;;2.60;;
2934;SDS011;2462;51.456;7.248;2023-04-22T06:05:40;2.90;;;2.60;;
2934;SDS011;2462;51.456;7.248;2023-04-22T06:08:07;2.90;;;2.60;;
2934;SDS011;2462;51.456;7.248;2023-04-22T06:10:32;2.50;;;2.30;;
2934;SDS011;2462;51.456;7.248;2023-04-22T06:12:58;2.60;;;2.40;;
2934;SDS011;2462;51.456;7.248;2023-04-22T06:15:24;4.90;;;2.60;;
2934;SDS011;2462;51.456;7.248;2023-04-22T06:17:50;2.90;;;2.50;;
2934;SDS011;2462;51.456;7.248;2023-04-22T06:20:15;2.60;;;2.40;;
2934;SDS011;2462;51.456;7.248;2023-04-22T06:22:41;2.70;;;2.50;;
2934;SDS011;2462;51.456;7.248;2023-04-22T06:25:06;3.70;;;2.70;;
2934;SDS011;2462;51.456;7.248;2023-04-22T06:27:32;3.13;;;2.83;;
2934;SDS011;2462;51.456;7.248;2023-04-22T06:29:58;3.33;;;3.03;;
2934;SDS011;2462;51.456;7.248;2023-04-22T06:32:23;2.53;;;2.30;;
2934;SDS011;2462;51.456;7.248;2023-04-22T06:34:49;3.20;;;2.50;;
2934;SDS011;2462;51.456;7.248;2023-04-22T06:37:14;3.40;;;2.77;;
2934;SDS011;2462;51.456;7.248;2023-04-22T06:39:40;2.90;;;2.10;;
2934;SDS011;2462;51.456;7.248;2023-04-22T06:42:06;2.50;;;2.30;;
2934;SDS011;2462;51.456;7.248;2023-04-22T06:44:31;2.37;;;2.17;;
2934;SDS011;2462;51.456;7.248;2023-04-22T06:46:57;2.33;;;2.13;;
2934;SDS011;2462;51.456;7.248;2023-04-22T06:49:22;2.30;;;2.10;;
2934;SDS011;2462;51.456;7.248;2023-04-22T06:51:48;2.37;;;2.17;;
2934;SDS011;2462;51.456;7.248;2023-04-22T06:54:13;2.57;;;2.27;;
2934;SDS011;2462;51.456;7.248;2023-04-22T06:56:39;3.40;;;2.20;;
2934;SDS011;2462;51.456;7.248;2023-04-22T06:59:04;2.23;;;2.03;;
2934;SDS011;2462;51.456;7.248;2023-04-22T07:01:31;4.70;;;2.50;;
2934;SDS011;2462;51.456;7.248;2023-04-22T07:03:57;2.80;;;2.50;;
2934;SDS011;2462;51.456;7.248;2023-04-22T07:06:23;2.40;;;2.20;;
2934;SDS011;2462;51.456;7.248;2023-04-22T07:08:48;2.30;;;2.10;;
2934;SDS011;2462;51.456;7.248;2023-04-22T07:11:14;2.70;;;2.50;;
2934;SDS011;2462;51.456;7.248;2023-04-22T07:13:39;2.37;;;2.17;;
2934;SDS011;2462;51.456;7.248;2023-04-22T07:16:05;2.60;;;2.20;;
2934;SDS011;2462;51.456;7.248;2023-04-22T07:18:30;2.30;;;2.10;;
2934;SDS011;2462;51.456;7.248;2023-04-22T07:20:56;2.80;;;2.60;;
2934;SDS011;2462;51.456;7.248;2023-04-22T07:23:22;2.60;;;2.23;;
2934;SDS011;2462;51.456;7.248;2023-04-22T07:25:47;4.07;;;2.27;;
2934;SDS011;2462;51.456;7.248;2023-04-22T07:28:13;2.20;;;2.00;;
2934;SDS011;2462;51.456;7.248;2023-04-22T07:30:38;2.57;;;2.20;;
2934;SDS011;2462;51.456;7.248;2023-04-22T07:33:04;4.33;;;2.50;;
2934;SDS011;2462;51.456;7.248;2023-04-22T07:35:30;2.83;;;2.63;;
2934;SDS011;2462;51.456;7.248;2023-04-22T07:37:55;1.90;;;1.80;;
2934;SDS011;2462;51.456;7.248;2023-04-22T07:40:21;2.20;;;2.00;;
2934;SDS011;2462;51.456;7.248;2023-04-22T07:42:46;2.57;;;2.37;;
2934;SDS011;2462;51.456;7.248;2023-04-22T07:45:12;2.63;;;2.20;;
2934;SDS011;2462;51.456;7.248;2023-04-22T07:47:38;3.00;;;2.17;;
2934;SDS011;2462;51.456;7.248;2023-04-22T07:50:04;3.00;;;2.43;;
2934;SDS011;2462;51.456;7.248;2023-04-22T07:52:30;3.60;;;2.07;;
2934;SDS011;2462;51.456;7.248;2023-04-22T07:54:55;4.53;;;1.83;;
2934;SDS011;2462;51.456;7.248;2023-04-22T07:57:21;1.97;;;1.77;;
2934;SDS011;2462;51.456;7.248;2023-04-22T07:59:47;2.20;;;1.97;;
2934;SDS011;2462;51.456;7.248;2023-04-22T08:02:13;2.53;;;2.03;;
2934;SDS011;2462;51.456;7.248;2023-04-22T08:04:39;2.30;;;2.10;;
2934;SDS011;2462;51.456;7.248;2023-04-22T08:07:04;2.70;;;2.20;;
2934;SDS011;2462;51.456;7.248;2023-04-22T08:09:30;4.00;;;2.40;;
2934;SDS011;2462;51.456;7.248;2023-04-22T08:11:55;2.40;;;2.20;;
2934;SDS011;2462;51.456;7.248;2023-04-22T08:14:22;2.47;;;2.27;;
2934;SDS011;2462;51.456;7.248;2023-04-22T08:16:48;1.83;;;1.60;;
2934;SDS011;2462;51.456;7.248;2023-04-22T08:19:15;2.90;;;1.70;;
2934;SDS011;2462;51.456;7.248;2023-04-22T08:21:41;2.00;;;1.50;;
2934;SDS011;2462;51.456;7.248;2023-04-22T08:24:06;1.97;;;1.60;;
2934;SDS011;2462;51.456;7.248;2023-04-22T08:26:32;2.03;;;1.80;;
2934;SDS011;2462;51.456;7.248;2023-04-22T08:28:58;2.37;;;2.17;;
2934;SDS011;2462;51.456;7.248;2023-04-22T08:31:25;2.03;;;1.50;;
2934;SDS011;2462;51.456;7.248;2023-04-22T08:33:50;2.83;;;2.10;;
2934;SDS011;2462;51.456;7.248;2023-04-22T08:36:16;1.83;;;1.47;;
2934;SDS011;2462;51.456;7.248;2023-04-22T08:38:41;3.30;;;1.87;;
2934;SDS011;2462;51.456;7.248;2023-04-22T08:41:07;1.83;;;1.73;;
2934;SDS011;2462;51.456;7.248;2023-04-22T08:43:33;1.83;;;1.73;;
2934;SDS011;2462;51.456;7.248;2023-04-22T08:45:59;2.10;;;1.40;;
2934;SDS011;2462;51.456;7.248;2023-04-22T08:48:26;1.40;;;1.30;;
2934;SDS011;2462;51.456;7.248;2023-04-22T08:50:51;2.17;;;1.97;;
2934;SDS011;2462;51.456;7.248;2023-04-22T08:53:19;1.43;;;1.33;;
2934;SDS011;2462;51.456;7.248;2023-04-22T08:55:45;1.63;;;1.53;;
2934;SDS011;2462;51.456;7.248;2023-04-22T08:58:12;1.70;;;1.30;;
2934;SDS011;2462;51.456;7.248;2023-04-22T09:00:38;1.60;;;1.50;;
2934;SDS011;2462;51.456;7.248;2023-04-22T09:03:05;1.80;;;1.67;;
2934;SDS011;2462;51.456;7.248;2023-04-22T09:05:31;1.83;;;1.53;;
2934;SDS011;2462;51.456;7.248;2023-04-22T09:07:58;2.73;;;1.50;;
2934;SDS011;2462;51.456;7.248;2023-04-22T09:10:24;1.87;;;1.77;;
2934;SDS011;2462;51.456;7.248;2023-04-22T09:12:50;2.50;;;1.37;;
2934;SDS011;2462;51.456;7.248;2023-04-22T09:15:16;1.53;;;1.43;;
2934;SDS011;2462;51.456;7.248;2023-04-22T09:17:41;1.50;;;1.40;;
2934;SDS011;2462;51.456;7.248;2023-04-22T09:20:08;1.67;;;1.27;;
2934;SDS011;2462;51.456;7.248;2023-04-22T09:22:37;2.10;;;1.40;;
2934;SDS011;2462;51.456;7.248;2023-04-22T09:25:24;1.43;;;1.30;;
2934;SDS011;2462;51.456;7.248;2023-04-22T09:27:52;1.70;;;1.47;;
2934;SDS011;2462;51.456;7.248;2023-04-22T09:30:21;1.53;;;1.43;;
2934;SDS011;2462;51.456;7.248;2023-04-22T09:33:02;1.83;;;1.63;;
2934;SDS011;2462;51.456;7.248;2023-04-22T09:35:31;1.70;;;1.17;;
2934;SDS011;2462;51.456;7.248;2023-04-22T09:37:58;1.70;;;1.50;;
2934;SDS011;2462;51.456;7.248;2023-04-22T09:40:25;1.87;;;1.50;;
2934;SDS011;2462;51.456;7.248;2023-04-22T09:42:52;2.30;;;1.63;;
2934;SDS011;2462;51.456;7.248;2023-04-22T09:45:36;1.30;;;1.20;;
2934;SDS011;2462;51.456;7.248;2023-04-22T09:48:06;2.63;;;1.60;;
2934;SDS011;2462;51.456;7.248;2023-04-22T09:50:33;1.20;;;1.10;;
2934;SDS011;2462;51.456;7.248;2023-04-22T09:53:04;1.30;;;1.20;;
2934;SDS011;2462;51.456;7.248;2023-04-22T09:55:43;2.27;;;1.30;;
2934;SDS011;2462;51.456;7.248;2023-04-22T09:58:14;1.20;;;1.07;;
2934;SDS011;2462;51.456;7.248;2023-04-22T10:00:43;1.63;;;1.37;;
2934;SDS011;2462;51.456;7.248;2023-04-22T10:03:12;1.20;;;0.97;;
2934;SDS011;2462;51.456;7.248;2023-04-22T10:05:39;2.40;;;1.30;;
2934;SDS011;2462;51.456;7.248;2023-04-22T10:08:06;1.27;;;1.17;;
2934;SDS011;2462;51.456;7.248;2023-04-22T10:10:32;1.40;;;1.20;;
2934;SDS011;2462;51.456;7.248;2023-04-22T10:13:01;1.63;;;1.30;;
2934;SDS011;2462;51.456;7.248;2023-04-22T10:15:41;2.17;;;1.07;;
2934;SDS011;2462;51.456;7.248;2023-04-22T10:18:10;1.50;;;1.33;;
2934;SDS011;2462;51.456;7.248;2023-04-22T10:20:36;1.30;;;1.20;;
2934;SDS011;2462;51.456;7.248;2023-04-22T10:23:04;1.60;;;1.50;;
2934;SDS011;2462;51.456;7.248;2023-04-22T10:25:30;1.30;;;1.10;;
2934;SDS011;2462;51.456;7.248;2023-04-22T10:28:01;1.67;;;1.33;;
2934;SDS011;2462;51.456;7.248;2023-04-22T10:30:28;1.40;;;1.27;;
2934;SDS011;2462;51.456;7.248;2023-04-22T10:32:55;1.97;;;1.03;;
2934;SDS011;2462;51.456;7.248;2023-04-22T10:35:27;1.30;;;1.20;;
2934;SDS011;2462;51.456;7.248;2023-04-22T10:37:53;1.10;;;0.87;;
2934;SDS011;2462;51.456;7.248;2023-04-22T10:40:19;1.33;;;1.07;;
2934;SDS011;2462;51.456;7.248;2023-04-22T10:42:50;1.50;;;1.20;;
2934;SDS011;2462;51.456;7.248;2023-04-22T10:45:16;1.00;;;0.90;;
2934;SDS011;2462;51.456;7.248;2023-04-22T10:47:42;3.13;;;1.17;;
2934;SDS011;2462;51.456;7.248;2023-04-22T10:50:25;1.60;;;1.30;;
2934;SDS011;2462;51.456;7.248;2023-04-22T10:52:55;1.30;;;1.13;;
2934;SDS011;2462;51.456;7.248;2023-04-22T10:55:22;1.20;;;1.00;;
2934;SDS011;2462;51.456;7.248;2023-04-22T10:57:49;1.73;;;1.20;;
2934;SDS011;2462;51.456;7.248;2023-04-22T11:00:19;1.17;;;0.97;;
2934;SDS011;2462;51.456;7.248;2023-04-22T11:03:08;1.20;;;1.03;;
2934;SDS011;2462;51.456;7.248;2023-04-22T11:05:32;1.40;;;1.20;;
2934;SDS011;2462;51.456;7.248;2023-04-22T11:08:04;1.30;;;0.90;;
2934;SDS011;2462;51.456;7.248;2023-04-22T11:10:40;1.40;;;1.20;;
2934;SDS011;2462;51.456;7.248;2023-04-22T11:13:07;1.50;;;1.17;;
2934;SDS011;2462;51.456;7.248;2023-04-22T11:15:34;1.00;;;0.90;;
2934;SDS011;2462;51.456;7.248;2023-04-22T11:18:01;1.10;;;0.90;;
2934;SDS011;2462;51.456;7.248;2023-04-22T11:20:27;1.10;;;1.00;;
2934;SDS011;2462;51.456;7.248;2023-04-22T11:22:55;1.90;;;1.30;;
2934;SDS011;2462;51.456;7.248;2023-04-22T11:25:22;1.37;;;0.90;;
2934;SDS011;2462;51.456;7.248;2023-04-22T11:27:48;1.27;;;1.10;;
2934;SDS011;2462;51.456;7.248;2023-04-22T11:30:16;1.20;;;1.10;;
2934;SDS011;2462;51.456;7.248;2023-04-22T11:32:43;1.30;;;1.00;;
2934;SDS011;2462;51.456;7.248;2023-04-22T11:35:10;1.10;;;1.00;;
2934;SDS011;2462;51.456;7.248;2023-04-22T11:37:40;2.17;;;1.17;;
2934;SDS011;2462;51.456;7.248;2023-04-22T11:40:07;1.17;;;1.00;;
2934;SDS011;2462;51.456;7.248;2023-04-22T11:42:34;1.20;;;1.00;;
2934;SDS011;2462;51.456;7.248;2023-04-22T11:45:00;0.97;;;0.83;;
2934;SDS011;2462;51.456;7.248;2023-04-22T11:47:29;1.67;;;1.20;;
2934;SDS011;2462;51.456;7.248;2023-04-22T11:52:22;1.77;;;1.10;;
2934;SDS011;2462;51.456;7.248;2023-04-22T11:54:48;1.07;;;0.90;;
2934;SDS011;2462;51.456;7.248;2023-04-22T11:57:14;1.30;;;1.20;;
2934;SDS011;2462;51.456;7.248;2023-04-22T11:59:41;1.73;;;1.00;;
2934;SDS011;2462;51.456;7.248;2023-04-22T12:02:07;1.37;;;1.00;;
2934;SDS011;2462;51.456;7.248;2023-04-22T12:04:43;1.10;;;0.97;;
2934;SDS011;2462;51.456;7.248;2023-04-22T12:07:09;1.57;;;1.43;;
2934;SDS011;2462;51.456;7.248;2023-04-22T12:09:35;1.20;;;1.00;;
2934;SDS011;2462;51.456;7.248;2023-04-22T12:12:02;1.20;;;1.00;;
2934;SDS011;2462;51.456;7.248;2023-04-22T12:14:31;5.70;;;0.97;;
2934;SDS011;2462;51.456;7.248;2023-04-22T12:16:58;1.10;;;0.83;;
2934;SDS011;2462;51.456;7.248;2023-04-22T12:19:28;2.00;;;1.10;;
2934;SDS011;2462;51.456;7.248;2023-04-22T12:21:57;1.30;;;1.20;;
2934;SDS011;2462;51.456;7.248;2023-04-22T12:24:26;1.00;;;0.90;;
2934;SDS011;2462;51.456;7.248;2023-04-22T12:26:53;1.40;;;1.10;;
2934;SDS011;2462;51.456;7.248;2023-04-22T12:29:26;1.93;;;1.00;;
2934;SDS011;2462;51.456;7.248;2023-04-22T12:31:52;1.10;;;1.00;;
2934;SDS011;2462;51.456;7.248;2023-04-22T12:34:18;1.13;;;1.03;;
2934;SDS011;2462;51.456;7.248;2023-04-22T12:36:44;1.23;;;1.00;;
2934;SDS011;2462;51.456;7.248;2023-04-22T12:39:10;1.10;;;1.00;;
2934;SDS011;2462;51.456;7.248;2023-04-22T12:41:36;2.97;;;1.60;;
2934;SDS011;2462;51.456;7.248;2023-04-22T12:44:02;2.70;;;1.80;;
2934;SDS011;2462;51.456;7.248;2023-04-22T12:46:28;4.90;;;2.10;;
2934;SDS011;2462;51.456;7.248;2023-04-22T12:48:54;2.70;;;2.07;;
2934;SDS011;2462;51.456;7.248;2023-04-22T12:51:20;2.67;;;2.47;;
2934;SDS011;2462;51.456;7.248;2023-04-22T12:53:46;2.10;;;2.00;;
2934;SDS011;2462;51.456;7.248;2023-04-22T12:56:12;3.97;;;2.40;;
2934;SDS011;2462;51.456;7.248;2023-04-22T12:58:37;3.37;;;2.50;;
2934;SDS011;2462;51.456;7.248;2023-04-22T13:01:03;3.25;;;2.30;;
2934;SDS011;2462;51.456;7.248;2023-04-22T13:03:28;2.63;;;2.10;;
2934;SDS011;2462;51.456;7.248;2023-04-22T13:05:54;2.73;;;1.90;;
2934;SDS011;2462;51.456;7.248;2023-04-22T13:08:19;3.75;;;2.40;;
2934;SDS011;2462;51.456;7.248;2023-04-22T13:10:45;4.93;;;2.80;;
2934;SDS011;2462;51.456;7.248;2023-04-22T13:13:11;3.07;;;2.00;;
2934;SDS011;2462;51.456;7.248;2023-04-22T13:15:36;3.47;;;1.97;;
2934;SDS011;2462;51.456;7.248;2023-04-22T13:18:02;5.13;;;2.70;;
2934;SDS011;2462;51.456;7.248;2023-04-22T13:20:28;4.20;;;2.50;;
2934;SDS011;2462;51.456;7.248;2023-04-22T13:22:53;2.50;;;2.30;;
2934;SDS011;2462;51.456;7.248;2023-04-22T13:25:19;4.87;;;2.83;;
2934;SDS011;2462;51.456;7.248;2023-04-22T13:27:45;4.20;;;2.43;;
2934;SDS011;2462;51.456;7.248;2023-04-22T13:30:11;2.50;;;2.00;;
2934;SDS011;2462;51.456;7.248;2023-04-22T13:32:37;4.13;;;2.30;;
2934;SDS011;2462;51.456;7.248;2023-04-22T13:35:02;2.90;;;2.40;;
2934;SDS011;2462;51.456;7.248;2023-04-22T13:37:28;3.90;;;2.40;;
2934;SDS011;2462;51.456;7.248;2023-04-22T13:39:54;3.33;;;1.97;;
2934;SDS011;2462;51.456;7.248;2023-04-22T13:42:20;4.20;;;2.40;;
2934;SDS011;2462;51.456;7.248;2023-04-22T13:44:45;3.17;;;2.80;;
2934;SDS011;2462;51.456;7.248;2023-04-22T13:47:11;5.03;;;2.60;;
2934;SDS011;2462;51.456;7.248;2023-04-22T13:49:36;3.80;;;2.67;;
2934;SDS011;2462;51.456;7.248;2023-04-22T13:52:02;2.40;;;2.20;;
2934;SDS011;2462;51.456;7.248;2023-04-22T13:54:28;3.50;;;3.03;;
2934;SDS011;2462;51.456;7.248;2023-04-22T13:56:53;5.17;;;3.37;;
2934;SDS011;2462;51.456;7.248;2023-04-22T13:59:19;3.50;;;2.40;;
2934;SDS011;2462;51.456;7.248;2023-04-22T14:01:44;2.80;;;2.60;;
2934;SDS011;2462;51.456;7.248;2023-04-22T14:04:10;3.20;;;2.53;;
2934;SDS011;2462;51.456;7.248;2023-04-22T14:06:36;2.70;;;2.50;;
2934;SDS011;2462;51.456;7.248;2023-04-22T14:09:02;3.60;;;2.43;;
2934;SDS011;2462;51.456;7.248;2023-04-22T14:11:31;3.60;;;2.33;;
2934;SDS011;2462;51.456;7.248;2023-04-22T14:13:56;3.80;;;2.70;;
2934;SDS011;2462;51.456;7.248;2023-04-22T14:16:22;2.57;;;2.37;;
2934;SDS011;2462;51.456;7.248;2023-04-22T14:18:47;4.17;;;2.70;;
2934;SDS011;2462;51.456;7.248;2023-04-22T14:21:13;5.17;;;2.80;;
2934;SDS011;2462;51.456;7.248;2023-04-22T14:23:39;4.10;;;2.60;;
2934;SDS011;2462;51.456;7.248;2023-04-22T14:26:06;3.63;;;2.50;;
2934;SDS011;2462;51.456;7.248;2023-04-22T14:28:33;2.90;;;2.23;;
2934;SDS011;2462;51.456;7.248;2023-04-22T14:30:59;2.50;;;2.13;;
2934;SDS011;2462;51.456;7.248;2023-04-22T14:33:25;2.77;;;2.43;;
2934;SDS011;2462;51.456;7.248;2023-04-22T14:35:51;5.07;;;2.63;;
2934;SDS011;2462;51.456;7.248;2023-04-22T14:38:17;3.60;;;2.27;;
2934;SDS011;2462;51.456;7.248;2023-04-22T14:40:43;2.87;;;2.53;;
2934;SDS011;2462;51.456;7.248;2023-04-22T14:43:09;3.60;;;2.13;;
2934;SDS011;2462;51.456;7.248;2023-04-22T14:45:35;2.97;;;2.10;;
2934;SDS011;2462;51.456;7.248;2023-04-22T14:48:00;3.10;;;2.60;;
2934;SDS011;2462;51.456;7.248;2023-04-22T14:50:26;4.20;;;2.40;;
2934;SDS011;2462;51.456;7.248;2023-04-22T14:52:52;2.63;;;2.43;;
2934;SDS011;2462;51.456;7.248;2023-04-22T14:55:18;4.23;;;2.57;;
2934;SDS011;2462;51.456;7.248;2023-04-22T14:57:44;2.93;;;2.40;;
2934;SDS011;2462;51.456;7.248;2023-04-22T15:00:10;4.23;;;2.87;;
2934;SDS011;2462;51.456;7.248;2023-04-22T15:02:36;3.10;;;1.93;;
2934;SDS011;2462;51.456;7.248;2023-04-22T15:05:02;2.97;;;2.27;;
2934;SDS011;2462;51.456;7.248;2023-04-22T15:07:28;2.67;;;2.13;;
2934;SDS011;2462;51.456;7.248;2023-04-22T15:09:53;4.07;;;2.43;;
2934;SDS011;2462;51.456;7.248;2023-04-22T15:12:22;6.30;;;2.40;;